sensor_id;sensor_type;location;lat;lon;timestamp;P1;durP1;ratioP1;P2;durP2;ratioP2
6197;SDS011;3132;42.622;23.328;2022-08-14T00:02:15;15.63;;;14.13;;
6197;SDS011;3132;42.622;23.328;2022-08-14T00:04:41;15.20;;;13.97;;
6197;SDS011;3132;42.622;23.328;2022-08-14T00:07:07;15.97;;;14.37;;
6197;SDS011;3132;42.622;23.328;2022-08-14T00:09:34;15.60;;;14.00;;
6197;SDS011;3132;42.622;23.328;2022-08-14T00:11:59;15.03;;;13.77;;
6197;SDS011;3132;42.622;23.328;2022-08-14T00:14:26;15.20;;;13.90;;
6197;SDS011;3132;42.622;23.328;2022-08-14T00:16:52;16.07;;;14.57;;
6197;SDS011;3132;42.622;23.328;2022-08-14T00:19:17;14.80;;;13.57;;
6197;SDS011;3132;42.622;23.328;2022-08-14T00:21:43;15.33;;;14.03;;
6197;SDS011;3132;42.622;23.328;2022-08-14T00:24:08;15.40;;;14.20;;
6197;SDS011;3132;42.622;23.328;2022-08-14T00:26:34;15.60;;;14.30;;
6197;SDS011;3132;42.622;23.328;2022-08-14T00:28:59;15.47;;;14.00;;
6197;SDS011;3132;42.622;23.328;2022-08-14T00:31:24;18.67;;;15.03;;
6197;SDS011;3132;42.622;23.328;2022-08-14T00:33:51;16.07;;;14.63;;
6197;SDS011;3132;42.622;23.328;2022-08-14T00:36:17;14.90;;;13.60;;
6197;SDS011;3132;42.622;23.328;2022-08-14T00:38:43;16.20;;;14.70;;
6197;SDS011;3132;42.622;23.328;2022-08-14T00:41:08;15.97;;;14.40;;
6197;SDS011;3132;42.622;23.328;2022-08-14T00:43:35;14.30;;;13.10;;
6197;SDS011;3132;42.622;23.328;2022-08-14T00:46:04;15.83;;;14.53;;
6197;SDS011;3132;42.622;23.328;2022-08-14T00:48:32;15.47;;;13.87;;
6197;SDS011;3132;42.622;23.328;2022-08-14T00:50:58;16.50;;;14.67;;
6197;SDS011;3132;42.622;23.328;2022-08-14T00:53:24;14.50;;;13.30;;
6197;SDS011;3132;42.622;23.328;2022-08-14T00:55:50;16.70;;;15.17;;
6197;SDS011;3132;42.622;23.328;2022-08-14T00:58:20;15.27;;;13.97;;
6197;SDS011;3132;42.622;23.328;2022-08-14T01:00:55;15.70;;;14.30;;
6197;SDS011;3132;42.622;23.328;2022-08-14T01:03:23;15.30;;;14.00;;
6197;SDS011;3132;42.622;23.328;2022-08-14T01:05:50;16.77;;;15.17;;
6197;SDS011;3132;42.622;23.328;2022-08-14T01:08:17;16.93;;;15.23;;
6197;SDS011;3132;42.622;23.328;2022-08-14T01:10:48;17.97;;;16.03;;
6197;SDS011;3132;42.622;23.328;2022-08-14T01:13:22;17.37;;;15.43;;
6197;SDS011;3132;42.622;23.328;2022-08-14T01:15:52;17.57;;;15.87;;
6197;SDS011;3132;42.622;23.328;2022-08-14T01:18:19;16.37;;;14.97;;
6197;SDS011;3132;42.622;23.328;2022-08-14T01:21:05;15.87;;;14.27;;
6197;SDS011;3132;42.622;23.328;2022-08-14T01:23:33;15.50;;;14.03;;
6197;SDS011;3132;42.622;23.328;2022-08-14T01:26:02;17.80;;;13.37;;
6197;SDS011;3132;42.622;23.328;2022-08-14T01:28:28;14.77;;;13.30;;
6197;SDS011;3132;42.622;23.328;2022-08-14T01:30:55;15.57;;;14.27;;
6197;SDS011;3132;42.622;23.328;2022-08-14T01:33:23;17.10;;;15.23;;
6197;SDS011;3132;42.622;23.328;2022-08-14T01:35:55;17.27;;;15.57;;
6197;SDS011;3132;42.622;23.328;2022-08-14T01:38:28;16.80;;;15.20;;
6197;SDS011;3132;42.622;23.328;2022-08-14T01:41:02;16.67;;;15.17;;
6197;SDS011;3132;42.622;23.328;2022-08-14T01:43:32;18.60;;;16.47;;
6197;SDS011;3132;42.622;23.328;2022-08-14T01:46:06;18.80;;;16.83;;
6197;SDS011;3132;42.622;23.328;2022-08-14T01:48:35;20.23;;;17.40;;
6197;SDS011;3132;42.622;23.328;2022-08-14T01:51:02;19.20;;;16.13;;
6197;SDS011;3132;42.622;23.328;2022-08-14T01:53:28;16.87;;;15.17;;
6197;SDS011;3132;42.622;23.328;2022-08-14T01:55:56;17.57;;;15.70;;
6197;SDS011;3132;42.622;23.328;2022-08-14T01:58:23;18.70;;;16.60;;
6197;SDS011;3132;42.622;23.328;2022-08-14T02:00:52;18.53;;;16.63;;
6197;SDS011;3132;42.622;23.328;2022-08-14T02:03:26;17.73;;;15.93;;
6197;SDS011;3132;42.622;23.328;2022-08-14T02:05:55;19.53;;;15.97;;
6197;SDS011;3132;42.622;23.328;2022-08-14T02:08:24;18.90;;;16.43;;
6197;SDS011;3132;42.622;23.328;2022-08-14T02:10:51;17.13;;;15.47;;
6197;SDS011;3132;42.622;23.328;2022-08-14T02:13:37;16.43;;;14.83;;
6197;SDS011;3132;42.622;23.328;2022-08-14T02:16:03;16.57;;;15.07;;
6197;SDS011;3132;42.622;23.328;2022-08-14T02:18:29;16.20;;;14.40;;
6197;SDS011;3132;42.622;23.328;2022-08-14T02:20:54;18.33;;;16.60;;
6197;SDS011;3132;42.622;23.328;2022-08-14T02:23:20;21.17;;;16.80;;
6197;SDS011;3132;42.622;23.328;2022-08-14T02:25:45;18.27;;;16.37;;
6197;SDS011;3132;42.622;23.328;2022-08-14T02:28:11;21.30;;;17.40;;
6197;SDS011;3132;42.622;23.328;2022-08-14T02:30:36;26.43;;;19.03;;
6197;SDS011;3132;42.622;23.328;2022-08-14T02:33:05;31.67;;;21.07;;
6197;SDS011;3132;42.622;23.328;2022-08-14T02:35:31;29.27;;;20.33;;
6197;SDS011;3132;42.622;23.328;2022-08-14T02:37:57;28.87;;;20.60;;
6197;SDS011;3132;42.622;23.328;2022-08-14T02:40:22;20.97;;;17.83;;
6197;SDS011;3132;42.622;23.328;2022-08-14T02:42:48;23.33;;;19.30;;
6197;SDS011;3132;42.622;23.328;2022-08-14T02:45:14;21.77;;;17.17;;
6197;SDS011;3132;42.622;23.328;2022-08-14T02:47:39;28.17;;;18.50;;
6197;SDS011;3132;42.622;23.328;2022-08-14T02:50:05;25.70;;;19.73;;
6197;SDS011;3132;42.622;23.328;2022-08-14T02:52:31;31.00;;;20.83;;
6197;SDS011;3132;42.622;23.328;2022-08-14T02:54:57;33.10;;;22.00;;
6197;SDS011;3132;42.622;23.328;2022-08-14T02:57:23;41.77;;;22.30;;
6197;SDS011;3132;42.622;23.328;2022-08-14T02:59:50;36.13;;;21.53;;
6197;SDS011;3132;42.622;23.328;2022-08-14T03:02:16;43.13;;;23.10;;
6197;SDS011;3132;42.622;23.328;2022-08-14T03:04:41;41.40;;;23.70;;
6197;SDS011;3132;42.622;23.328;2022-08-14T03:07:07;41.33;;;23.90;;
6197;SDS011;3132;42.622;23.328;2022-08-14T03:09:37;40.73;;;22.33;;
6197;SDS011;3132;42.622;23.328;2022-08-14T03:12:04;41.10;;;24.93;;
6197;SDS011;3132;42.622;23.328;2022-08-14T03:14:30;35.23;;;22.37;;
6197;SDS011;3132;42.622;23.328;2022-08-14T03:16:59;37.73;;;25.00;;
6197;SDS011;3132;42.622;23.328;2022-08-14T03:19:25;33.83;;;24.00;;
6197;SDS011;3132;42.622;23.328;2022-08-14T03:21:50;40.27;;;23.43;;
6197;SDS011;3132;42.622;23.328;2022-08-14T03:24:15;35.87;;;23.80;;
6197;SDS011;3132;42.622;23.328;2022-08-14T03:26:42;39.80;;;23.83;;
6197;SDS011;3132;42.622;23.328;2022-08-14T03:29:10;34.70;;;23.10;;
6197;SDS011;3132;42.622;23.328;2022-08-14T03:31:37;41.33;;;23.10;;
6197;SDS011;3132;42.622;23.328;2022-08-14T03:34:05;33.40;;;22.93;;
6197;SDS011;3132;42.622;23.328;2022-08-14T03:36:34;31.50;;;21.37;;
6197;SDS011;3132;42.622;23.328;2022-08-14T03:39:00;30.73;;;20.77;;
6197;SDS011;3132;42.622;23.328;2022-08-14T03:41:28;31.97;;;22.10;;
6197;SDS011;3132;42.622;23.328;2022-08-14T03:43:57;31.23;;;22.00;;
6197;SDS011;3132;42.622;23.328;2022-08-14T03:46:25;35.83;;;23.57;;
6197;SDS011;3132;42.622;23.328;2022-08-14T03:48:55;33.40;;;23.93;;
6197;SDS011;3132;42.622;23.328;2022-08-14T03:51:22;34.33;;;22.87;;
6197;SDS011;3132;42.622;23.328;2022-08-14T03:53:51;37.10;;;23.03;;
6197;SDS011;3132;42.622;23.328;2022-08-14T03:56:17;28.67;;;21.87;;
6197;SDS011;3132;42.622;23.328;2022-08-14T03:58:48;30.83;;;22.10;;
6197;SDS011;3132;42.622;23.328;2022-08-14T04:01:15;25.73;;;20.47;;
6197;SDS011;3132;42.622;23.328;2022-08-14T04:03:43;28.80;;;20.23;;
6197;SDS011;3132;42.622;23.328;2022-08-14T04:06:09;24.33;;;18.10;;
6197;SDS011;3132;42.622;23.328;2022-08-14T04:08:35;22.50;;;19.07;;
6197;SDS011;3132;42.622;23.328;2022-08-14T04:11:02;25.30;;;19.53;;
6197;SDS011;3132;42.622;23.328;2022-08-14T04:13:29;29.77;;;21.93;;
6197;SDS011;3132;42.622;23.328;2022-08-14T04:15:56;31.67;;;23.10;;
6197;SDS011;3132;42.622;23.328;2022-08-14T04:18:21;26.93;;;22.30;;
6197;SDS011;3132;42.622;23.328;2022-08-14T04:20:46;28.23;;;22.53;;
6197;SDS011;3132;42.622;23.328;2022-08-14T04:23:12;29.60;;;22.33;;
6197;SDS011;3132;42.622;23.328;2022-08-14T04:25:37;31.00;;;23.63;;
6197;SDS011;3132;42.622;23.328;2022-08-14T04:28:04;28.80;;;21.17;;
6197;SDS011;3132;42.622;23.328;2022-08-14T04:30:31;23.33;;;19.83;;
6197;SDS011;3132;42.622;23.328;2022-08-14T04:33:03;27.00;;;21.63;;
6197;SDS011;3132;42.622;23.328;2022-08-14T04:35:33;22.13;;;18.87;;
6197;SDS011;3132;42.622;23.328;2022-08-14T04:37:59;21.40;;;19.20;;
6197;SDS011;3132;42.622;23.328;2022-08-14T04:40:43;19.83;;;17.83;;
6197;SDS011;3132;42.622;23.328;2022-08-14T04:43:27;23.73;;;19.70;;
6197;SDS011;3132;42.622;23.328;2022-08-14T04:46:10;19.37;;;17.43;;
6197;SDS011;3132;42.622;23.328;2022-08-14T04:48:37;20.30;;;18.37;;
6197;SDS011;3132;42.622;23.328;2022-08-14T04:51:04;19.73;;;17.77;;
6197;SDS011;3132;42.622;23.328;2022-08-14T04:53:31;20.80;;;17.00;;
6197;SDS011;3132;42.622;23.328;2022-08-14T04:55:57;18.47;;;16.47;;
6197;SDS011;3132;42.622;23.328;2022-08-14T04:58:24;18.73;;;17.07;;
6197;SDS011;3132;42.622;23.328;2022-08-14T05:00:56;19.33;;;17.50;;
6197;SDS011;3132;42.622;23.328;2022-08-14T05:03:26;18.63;;;16.73;;
6197;SDS011;3132;42.622;23.328;2022-08-14T05:05:54;19.67;;;17.80;;
6197;SDS011;3132;42.622;23.328;2022-08-14T05:08:22;19.63;;;17.53;;
6197;SDS011;3132;42.622;23.328;2022-08-14T05:10:48;22.03;;;19.83;;
6197;SDS011;3132;42.622;23.328;2022-08-14T05:13:21;20.00;;;18.00;;
6197;SDS011;3132;42.622;23.328;2022-08-14T05:15:48;20.23;;;18.23;;
6197;SDS011;3132;42.622;23.328;2022-08-14T05:18:17;19.53;;;17.53;;
6197;SDS011;3132;42.622;23.328;2022-08-14T05:20:45;20.07;;;18.13;;
6197;SDS011;3132;42.622;23.328;2022-08-14T05:23:13;21.13;;;17.00;;
6197;SDS011;3132;42.622;23.328;2022-08-14T05:25:40;17.97;;;16.27;;
6197;SDS011;3132;42.622;23.328;2022-08-14T05:30:33;19.40;;;17.50;;
6197;SDS011;3132;42.622;23.328;2022-08-14T05:32:59;20.23;;;18.07;;
6197;SDS011;3132;42.622;23.328;2022-08-14T05:35:25;21.03;;;18.93;;
6197;SDS011;3132;42.622;23.328;2022-08-14T05:37:51;19.43;;;17.53;;
6197;SDS011;3132;42.622;23.328;2022-08-14T05:40:17;20.00;;;17.97;;
6197;SDS011;3132;42.622;23.328;2022-08-14T05:42:42;20.67;;;18.57;;
6197;SDS011;3132;42.622;23.328;2022-08-14T05:45:08;20.90;;;18.83;;
6197;SDS011;3132;42.622;23.328;2022-08-14T05:47:37;19.63;;;17.67;;
6197;SDS011;3132;42.622;23.328;2022-08-14T05:50:04;20.13;;;17.57;;
6197;SDS011;3132;42.622;23.328;2022-08-14T05:52:34;20.13;;;18.13;;
6197;SDS011;3132;42.622;23.328;2022-08-14T05:55:00;19.80;;;17.90;;
6197;SDS011;3132;42.622;23.328;2022-08-14T05:57:25;20.27;;;18.27;;
6197;SDS011;3132;42.622;23.328;2022-08-14T05:59:51;20.83;;;18.53;;
6197;SDS011;3132;42.622;23.328;2022-08-14T06:02:16;20.90;;;17.77;;
6197;SDS011;3132;42.622;23.328;2022-08-14T06:04:41;22.37;;;17.47;;
6197;SDS011;3132;42.622;23.328;2022-08-14T06:07:12;21.70;;;19.17;;
6197;SDS011;3132;42.622;23.328;2022-08-14T06:09:40;21.37;;;19.17;;
6197;SDS011;3132;42.622;23.328;2022-08-14T06:12:07;21.83;;;19.53;;
6197;SDS011;3132;42.622;23.328;2022-08-14T06:14:32;24.50;;;19.23;;
6197;SDS011;3132;42.622;23.328;2022-08-14T06:16:58;23.93;;;19.93;;
6197;SDS011;3132;42.622;23.328;2022-08-14T06:19:23;22.30;;;19.07;;
6197;SDS011;3132;42.622;23.328;2022-08-14T06:21:49;22.70;;;19.40;;
6197;SDS011;3132;42.622;23.328;2022-08-14T06:24:14;22.60;;;20.30;;
6197;SDS011;3132;42.622;23.328;2022-08-14T06:26:40;21.13;;;18.87;;
6197;SDS011;3132;42.622;23.328;2022-08-14T06:29:05;22.10;;;19.77;;
6197;SDS011;3132;42.622;23.328;2022-08-14T06:31:30;24.23;;;20.87;;
6197;SDS011;3132;42.622;23.328;2022-08-14T06:33:56;22.83;;;19.43;;
6197;SDS011;3132;42.622;23.328;2022-08-14T06:36:21;23.57;;;20.50;;
6197;SDS011;3132;42.622;23.328;2022-08-14T06:38:47;22.60;;;20.20;;
6197;SDS011;3132;42.622;23.328;2022-08-14T06:41:12;21.97;;;19.57;;
6197;SDS011;3132;42.622;23.328;2022-08-14T06:43:37;25.50;;;19.97;;
6197;SDS011;3132;42.622;23.328;2022-08-14T06:46:03;23.67;;;21.17;;
6197;SDS011;3132;42.622;23.328;2022-08-14T06:48:28;22.83;;;20.43;;
6197;SDS011;3132;42.622;23.328;2022-08-14T06:50:54;33.77;;;21.83;;
6197;SDS011;3132;42.622;23.328;2022-08-14T06:53:20;23.80;;;21.27;;
6197;SDS011;3132;42.622;23.328;2022-08-14T06:55:46;25.00;;;21.63;;
6197;SDS011;3132;42.622;23.328;2022-08-14T06:58:13;27.07;;;20.53;;
6197;SDS011;3132;42.622;23.328;2022-08-14T07:00:39;25.67;;;21.70;;
6197;SDS011;3132;42.622;23.328;2022-08-14T07:03:25;24.50;;;20.23;;
6197;SDS011;3132;42.622;23.328;2022-08-14T07:06:11;23.13;;;20.03;;
6197;SDS011;3132;42.622;23.328;2022-08-14T07:08:37;24.70;;;21.77;;
6197;SDS011;3132;42.622;23.328;2022-08-14T07:11:02;26.40;;;20.70;;
6197;SDS011;3132;42.622;23.328;2022-08-14T07:13:28;25.30;;;20.90;;
6197;SDS011;3132;42.622;23.328;2022-08-14T07:15:55;29.33;;;23.20;;
6197;SDS011;3132;42.622;23.328;2022-08-14T07:20:50;30.97;;;22.73;;
6197;SDS011;3132;42.622;23.328;2022-08-14T07:23:17;27.53;;;22.87;;
6197;SDS011;3132;42.622;23.328;2022-08-14T07:25:43;28.73;;;22.67;;
6197;SDS011;3132;42.622;23.328;2022-08-14T07:28:20;29.57;;;22.70;;
6197;SDS011;3132;42.622;23.328;2022-08-14T07:30:48;28.60;;;21.90;;
6197;SDS011;3132;42.622;23.328;2022-08-14T07:33:14;28.63;;;23.73;;
6197;SDS011;3132;42.622;23.328;2022-08-14T07:35:40;27.27;;;21.10;;
6197;SDS011;3132;42.622;23.328;2022-08-14T07:38:06;28.50;;;23.23;;
6197;SDS011;3132;42.622;23.328;2022-08-14T07:40:32;27.33;;;22.80;;
6197;SDS011;3132;42.622;23.328;2022-08-14T07:42:59;28.97;;;22.27;;
6197;SDS011;3132;42.622;23.328;2022-08-14T07:45:25;24.57;;;21.73;;
6197;SDS011;3132;42.622;23.328;2022-08-14T07:47:52;23.67;;;20.50;;
6197;SDS011;3132;42.622;23.328;2022-08-14T07:50:20;23.80;;;20.00;;
6197;SDS011;3132;42.622;23.328;2022-08-14T07:52:46;21.67;;;18.97;;
6197;SDS011;3132;42.622;23.328;2022-08-14T07:55:14;28.57;;;18.70;;
6197;SDS011;3132;42.622;23.328;2022-08-14T07:57:45;19.33;;;17.33;;
6197;SDS011;3132;42.622;23.328;2022-08-14T08:00:12;21.03;;;18.70;;
6197;SDS011;3132;42.622;23.328;2022-08-14T08:02:41;20.00;;;17.90;;
6197;SDS011;3132;42.622;23.328;2022-08-14T08:05:08;21.17;;;18.23;;
6197;SDS011;3132;42.622;23.328;2022-08-14T08:07:35;22.27;;;19.87;;
6197;SDS011;3132;42.622;23.328;2022-08-14T08:10:15;21.63;;;19.43;;
6197;SDS011;3132;42.622;23.328;2022-08-14T08:15:38;21.37;;;18.50;;
6197;SDS011;3132;42.622;23.328;2022-08-14T08:18:06;23.57;;;21.07;;
6197;SDS011;3132;42.622;23.328;2022-08-14T08:20:43;21.73;;;19.33;;
6197;SDS011;3132;42.622;23.328;2022-08-14T08:23:11;21.93;;;19.57;;
6197;SDS011;3132;42.622;23.328;2022-08-14T08:25:38;24.00;;;21.43;;
6197;SDS011;3132;42.622;23.328;2022-08-14T08:28:12;23.60;;;19.80;;
6197;SDS011;3132;42.622;23.328;2022-08-14T08:30:47;22.97;;;20.40;;
6197;SDS011;3132;42.622;23.328;2022-08-14T08:33:21;22.80;;;20.43;;
6197;SDS011;3132;42.622;23.328;2022-08-14T08:35:48;21.97;;;19.60;;
6197;SDS011;3132;42.622;23.328;2022-08-14T08:38:14;23.33;;;19.43;;
6197;SDS011;3132;42.622;23.328;2022-08-14T08:40:45;15.53;;;14.27;;
6197;SDS011;3132;42.622;23.328;2022-08-14T08:43:20;14.87;;;13.60;;
6197;SDS011;3132;42.622;23.328;2022-08-14T08:46:03;12.80;;;11.93;;
6197;SDS011;3132;42.622;23.328;2022-08-14T08:48:49;12.53;;;11.63;;
6197;SDS011;3132;42.622;23.328;2022-08-14T08:51:35;12.93;;;11.93;;
6197;SDS011;3132;42.622;23.328;2022-08-14T08:54:06;12.83;;;11.83;;
6197;SDS011;3132;42.622;23.328;2022-08-14T08:56:35;12.93;;;11.97;;
6197;SDS011;3132;42.622;23.328;2022-08-14T08:59:01;12.30;;;11.50;;
6197;SDS011;3132;42.622;23.328;2022-08-14T09:01:28;13.10;;;12.00;;
6197;SDS011;3132;42.622;23.328;2022-08-14T09:04:04;13.20;;;12.03;;
6197;SDS011;3132;42.622;23.328;2022-08-14T09:06:29;12.87;;;11.90;;
6197;SDS011;3132;42.622;23.328;2022-08-14T09:08:55;13.57;;;12.47;;
6197;SDS011;3132;42.622;23.328;2022-08-14T09:11:20;14.67;;;13.47;;
6197;SDS011;3132;42.622;23.328;2022-08-14T09:13:50;14.07;;;12.77;;
6197;SDS011;3132;42.622;23.328;2022-08-14T09:16:18;14.43;;;13.03;;
6197;SDS011;3132;42.622;23.328;2022-08-14T09:18:46;13.33;;;12.33;;
6197;SDS011;3132;42.622;23.328;2022-08-14T09:21:11;14.37;;;12.87;;
6197;SDS011;3132;42.622;23.328;2022-08-14T09:23:37;13.90;;;12.80;;
6197;SDS011;3132;42.622;23.328;2022-08-14T09:26:03;13.27;;;12.17;;
6197;SDS011;3132;42.622;23.328;2022-08-14T09:28:28;13.70;;;12.50;;
6197;SDS011;3132;42.622;23.328;2022-08-14T09:30:54;15.82;;;14.30;;
6197;SDS011;3132;42.622;23.328;2022-08-14T09:46:54;13.98;;;12.75;;
6197;SDS011;3132;42.622;23.328;2022-08-14T09:49:30;15.48;;;14.10;;
6197;SDS011;3132;42.622;23.328;2022-08-14T09:52:04;15.05;;;13.57;;
6197;SDS011;3132;42.622;23.328;2022-08-14T09:54:42;14.45;;;13.25;;
6197;SDS011;3132;42.622;23.328;2022-08-14T09:57:10;15.07;;;13.63;;
6197;SDS011;3132;42.622;23.328;2022-08-14T09:59:48;15.63;;;14.13;;
6197;SDS011;3132;42.622;23.328;2022-08-14T10:02:20;15.90;;;14.27;;
6197;SDS011;3132;42.622;23.328;2022-08-14T10:05:01;14.52;;;13.38;;
6197;SDS011;3132;42.622;23.328;2022-08-14T10:07:31;14.10;;;12.98;;
6197;SDS011;3132;42.622;23.328;2022-08-14T10:09:57;16.50;;;14.68;;
6197;SDS011;3132;42.622;23.328;2022-08-14T10:12:24;16.75;;;15.18;;
6197;SDS011;3132;42.622;23.328;2022-08-14T10:14:51;16.63;;;13.75;;
6197;SDS011;3132;42.622;23.328;2022-08-14T10:17:20;13.40;;;12.20;;
6197;SDS011;3132;42.622;23.328;2022-08-14T10:19:50;13.90;;;12.80;;
6197;SDS011;3132;42.622;23.328;2022-08-14T10:22:22;15.07;;;13.07;;
6197;SDS011;3132;42.622;23.328;2022-08-14T10:24:52;14.40;;;13.10;;
6197;SDS011;3132;42.622;23.328;2022-08-14T10:27:19;15.30;;;13.85;;
6197;SDS011;3132;42.622;23.328;2022-08-14T10:29:58;15.38;;;13.93;;
6197;SDS011;3132;42.622;23.328;2022-08-14T10:32:24;14.43;;;13.32;;
6197;SDS011;3132;42.622;23.328;2022-08-14T10:34:51;14.60;;;13.40;;
6197;SDS011;3132;42.622;23.328;2022-08-14T10:37:38;14.57;;;13.40;;
6197;SDS011;3132;42.622;23.328;2022-08-14T10:40:05;14.52;;;13.13;;
6197;SDS011;3132;42.622;23.328;2022-08-14T10:42:40;14.82;;;12.85;;
6197;SDS011;3132;42.622;23.328;2022-08-14T10:45:17;14.43;;;13.23;;
6197;SDS011;3132;42.622;23.328;2022-08-14T10:47:45;15.00;;;13.70;;
6197;SDS011;3132;42.622;23.328;2022-08-14T10:50:11;14.00;;;12.90;;
6197;SDS011;3132;42.622;23.328;2022-08-14T10:52:38;16.10;;;14.65;;
6197;SDS011;3132;42.622;23.328;2022-08-14T10:57:47;15.25;;;13.68;;
6197;SDS011;3132;42.622;23.328;2022-08-14T11:00:15;14.23;;;13.13;;
6197;SDS011;3132;42.622;23.328;2022-08-14T11:02:43;13.80;;;12.60;;
6197;SDS011;3132;42.622;23.328;2022-08-14T11:05:15;13.53;;;12.43;;
6197;SDS011;3132;42.622;23.328;2022-08-14T11:10:20;12.07;;;11.20;;
6197;SDS011;3132;42.622;23.328;2022-08-14T11:12:53;12.32;;;11.43;;
6197;SDS011;3132;42.622;23.328;2022-08-14T11:15:21;12.13;;;11.13;;
6197;SDS011;3132;42.622;23.328;2022-08-14T11:17:49;11.05;;;10.35;;
6197;SDS011;3132;42.622;23.328;2022-08-14T11:20:19;12.20;;;11.32;;
6197;SDS011;3132;42.622;23.328;2022-08-14T11:22:46;11.88;;;11.10;;
6197;SDS011;3132;42.622;23.328;2022-08-14T11:25:16;13.65;;;12.48;;
6197;SDS011;3132;42.622;23.328;2022-08-14T11:27:43;12.25;;;11.35;;
6197;SDS011;3132;42.622;23.328;2022-08-14T11:30:14;11.48;;;10.70;;
6197;SDS011;3132;42.622;23.328;2022-08-14T11:32:44;11.38;;;10.57;;
6197;SDS011;3132;42.622;23.328;2022-08-14T11:35:15;10.98;;;10.18;;
6197;SDS011;3132;42.622;23.328;2022-08-14T11:38:15;11.70;;;10.85;;
6197;SDS011;3132;42.622;23.328;2022-08-14T11:40:37;10.18;;;9.55;;
6197;SDS011;3132;42.622;23.328;2022-08-14T11:43:07;11.85;;;10.75;;
6197;SDS011;3132;42.622;23.328;2022-08-14T11:45:33;11.10;;;10.30;;
6197;SDS011;3132;42.622;23.328;2022-08-14T11:48:23;11.90;;;10.98;;
6197;SDS011;3132;42.622;23.328;2022-08-14T11:50:49;11.82;;;10.93;;
6197;SDS011;3132;42.622;23.328;2022-08-14T11:55:44;11.18;;;10.40;;
6197;SDS011;3132;42.622;23.328;2022-08-14T11:58:10;11.27;;;10.48;;
6197;SDS011;3132;42.622;23.328;2022-08-14T12:00:49;10.77;;;10.07;;
6197;SDS011;3132;42.622;23.328;2022-08-14T12:03:42;11.63;;;10.82;;
6197;SDS011;3132;42.622;23.328;2022-08-14T12:06:12;10.95;;;10.30;;
6197;SDS011;3132;42.622;23.328;2022-08-14T12:08:39;11.18;;;10.38;;
6197;SDS011;3132;42.622;23.328;2022-08-14T12:11:05;10.10;;;9.50;;
6197;SDS011;3132;42.622;23.328;2022-08-14T12:13:32;10.60;;;9.90;;
6197;SDS011;3132;42.622;23.328;2022-08-14T12:16:06;10.55;;;9.85;;
6197;SDS011;3132;42.622;23.328;2022-08-14T12:18:34;11.30;;;10.50;;
6197;SDS011;3132;42.622;23.328;2022-08-14T12:21:14;10.63;;;9.93;;
6197;SDS011;3132;42.622;23.328;2022-08-14T12:23:40;9.65;;;9.15;;
6197;SDS011;3132;42.622;23.328;2022-08-14T12:26:07;10.77;;;9.98;;
6197;SDS011;3132;42.622;23.328;2022-08-14T12:28:38;11.02;;;10.32;;
6197;SDS011;3132;42.622;23.328;2022-08-14T12:31:19;11.55;;;10.52;;
6197;SDS011;3132;42.622;23.328;2022-08-14T12:33:57;10.80;;;10.10;;
6197;SDS011;3132;42.622;23.328;2022-08-14T12:36:24;11.75;;;10.95;;
6197;SDS011;3132;42.622;23.328;2022-08-14T12:38:54;11.80;;;10.80;;
6197;SDS011;3132;42.622;23.328;2022-08-14T12:41:22;11.60;;;10.80;;
6197;SDS011;3132;42.622;23.328;2022-08-14T12:43:51;11.18;;;10.38;;
6197;SDS011;3132;42.622;23.328;2022-08-14T12:46:30;12.20;;;11.10;;
6197;SDS011;3132;42.622;23.328;2022-08-14T12:49:00;12.73;;;11.52;;
6197;SDS011;3132;42.622;23.328;2022-08-14T12:51:32;11.75;;;10.95;;
6197;SDS011;3132;42.622;23.328;2022-08-14T12:53:58;11.32;;;10.32;;
6197;SDS011;3132;42.622;23.328;2022-08-14T12:56:24;11.85;;;10.95;;
6197;SDS011;3132;42.622;23.328;2022-08-14T12:58:54;11.63;;;10.82;;
6197;SDS011;3132;42.622;23.328;2022-08-14T13:01:22;12.05;;;11.13;;
6197;SDS011;3132;42.622;23.328;2022-08-14T13:03:52;12.20;;;11.20;;
6197;SDS011;3132;42.622;23.328;2022-08-14T13:06:29;11.98;;;11.10;;
6197;SDS011;3132;42.622;23.328;2022-08-14T13:08:54;12.00;;;11.00;;
6197;SDS011;3132;42.622;23.328;2022-08-14T13:11:20;11.32;;;10.57;;
6197;SDS011;3132;42.622;23.328;2022-08-14T13:13:50;11.38;;;10.57;;
6197;SDS011;3132;42.622;23.328;2022-08-14T13:16:22;11.45;;;10.75;;
6197;SDS011;3132;42.622;23.328;2022-08-14T13:18:48;10.88;;;10.07;;
6197;SDS011;3132;42.622;23.328;2022-08-14T13:21:15;10.85;;;10.07;;
6197;SDS011;3132;42.622;23.328;2022-08-14T13:23:42;10.75;;;10.05;;
6197;SDS011;3132;42.622;23.328;2022-08-14T13:26:08;9.93;;;9.23;;
6197;SDS011;3132;42.622;23.328;2022-08-14T13:28:35;10.82;;;10.13;;
6197;SDS011;3132;42.622;23.328;2022-08-14T13:31:04;9.93;;;9.32;;
6197;SDS011;3132;42.622;23.328;2022-08-14T13:33:31;9.93;;;9.32;;
6197;SDS011;3132;42.622;23.328;2022-08-14T13:35:58;10.93;;;10.23;;
6197;SDS011;3132;42.622;23.328;2022-08-14T13:38:25;9.37;;;8.87;;
6197;SDS011;3132;42.622;23.328;2022-08-14T13:40:54;10.77;;;9.97;;
6197;SDS011;3132;42.622;23.328;2022-08-14T13:43:21;10.90;;;10.10;;
6197;SDS011;3132;42.622;23.328;2022-08-14T13:45:48;11.50;;;10.80;;
6197;SDS011;3132;42.622;23.328;2022-08-14T13:48:16;10.27;;;9.63;;
6197;SDS011;3132;42.622;23.328;2022-08-14T13:50:42;9.80;;;9.20;;
6197;SDS011;3132;42.622;23.328;2022-08-14T13:53:10;9.98;;;9.38;;
6197;SDS011;3132;42.622;23.328;2022-08-14T13:55:38;12.43;;;11.33;;
6197;SDS011;3132;42.622;23.328;2022-08-14T13:58:06;9.63;;;9.00;;
6197;SDS011;3132;42.622;23.328;2022-08-14T14:00:33;10.83;;;10.03;;
6197;SDS011;3132;42.622;23.328;2022-08-14T14:03:00;10.40;;;9.73;;
6197;SDS011;3132;42.622;23.328;2022-08-14T14:05:29;10.80;;;10.10;;
6197;SDS011;3132;42.622;23.328;2022-08-14T14:07:55;10.30;;;9.70;;
6197;SDS011;3132;42.622;23.328;2022-08-14T14:10:22;10.80;;;9.80;;
6197;SDS011;3132;42.622;23.328;2022-08-14T14:12:48;12.03;;;11.13;;
6197;SDS011;3132;42.622;23.328;2022-08-14T14:15:16;11.07;;;10.33;;
6197;SDS011;3132;42.622;23.328;2022-08-14T14:17:44;11.27;;;10.27;;
6197;SDS011;3132;42.622;23.328;2022-08-14T14:20:12;10.67;;;9.87;;
6197;SDS011;3132;42.622;23.328;2022-08-14T14:22:41;10.77;;;10.07;;
6197;SDS011;3132;42.622;23.328;2022-08-14T14:25:08;10.80;;;10.10;;
6197;SDS011;3132;42.622;23.328;2022-08-14T14:27:35;12.17;;;9.37;;
6197;SDS011;3132;42.622;23.328;2022-08-14T14:30:02;10.57;;;9.87;;
6197;SDS011;3132;42.622;23.328;2022-08-14T14:32:29;11.10;;;10.30;;
6197;SDS011;3132;42.622;23.328;2022-08-14T14:34:59;11.47;;;10.53;;
6197;SDS011;3132;42.622;23.328;2022-08-14T14:37:29;11.70;;;10.90;;
6197;SDS011;3132;42.622;23.328;2022-08-14T14:39:56;10.57;;;9.70;;
6197;SDS011;3132;42.622;23.328;2022-08-14T14:42:24;11.17;;;10.53;;
6197;SDS011;3132;42.622;23.328;2022-08-14T14:44:51;9.83;;;9.23;;
6197;SDS011;3132;42.622;23.328;2022-08-14T14:47:22;11.43;;;10.73;;
6197;SDS011;3132;42.622;23.328;2022-08-14T14:49:49;9.93;;;9.33;;
6197;SDS011;3132;42.622;23.328;2022-08-14T14:52:16;11.83;;;11.13;;
6197;SDS011;3132;42.622;23.328;2022-08-14T14:54:47;10.60;;;10.00;;
6197;SDS011;3132;42.622;23.328;2022-08-14T14:57:13;10.03;;;9.33;;
6197;SDS011;3132;42.622;23.328;2022-08-14T14:59:41;10.63;;;10.03;;
6197;SDS011;3132;42.622;23.328;2022-08-14T15:02:06;10.47;;;9.77;;
6197;SDS011;3132;42.622;23.328;2022-08-14T15:04:36;10.07;;;9.47;;
6197;SDS011;3132;42.622;23.328;2022-08-14T15:07:03;9.73;;;9.03;;
6197;SDS011;3132;42.622;23.328;2022-08-14T15:09:29;10.50;;;9.90;;
6197;SDS011;3132;42.622;23.328;2022-08-14T15:11:54;11.13;;;10.43;;
6197;SDS011;3132;42.622;23.328;2022-08-14T15:14:21;10.63;;;9.93;;